Time;durP1;ratioP1;P1;durP2;ratioP2;P2;SDS_P1;SDS_P2;PMS_P1;PMS_P2;Temp;Humidity;BMP_temperature;BMP_pressure;BME280_temperature;BME280_humidity;BME280_pressure;Samples;Min_cycle;Max_cycle;Signal;HPM_P1;HPM_P2
2023/08/26 00:02:02;;;;;;;10.03;6.97;;;22.10;99.90;;;;;;5115013;28;20446;-74
2023/08/26 00:04:29;;;;;;;7.70;6.63;;;22.10;99.90;;;;;;5115089;28;20450;-75
2023/08/26 00:07:00;;;;;;;8.23;6.03;;;22.10;99.90;;;;;;5115227;28;20435;-75
2023/08/26 00:09:27;;;;;;;8.93;7.47;;;22.10;99.90;;;;;;5114615;28;20785;-75
2023/08/26 00:11:56;;;;;;;8.27;6.60;;;22.00;99.90;;;;;;5114847;28;20970;-74
2023/08/26 00:14:29;;;;;;;8.70;6.87;;;22.00;99.90;;;;;;5115502;28;20439;-75
2023/08/26 00:16:57;;;;;;;7.60;6.63;;;22.00;99.90;;;;;;5114721;28;20908;-75
2023/08/26 00:19:31;;;;;;;8.33;7.30;;;22.00;99.90;;;;;;5114585;28;20614;-75
2023/08/26 00:22:01;;;;;;;15.13;7.73;;;22.10;99.90;;;;;;5115098;28;20418;-75
2023/08/26 00:24:28;;;;;;;9.47;7.83;;;22.10;99.70;;;;;;5114557;28;20510;-75
2023/08/26 00:26:58;;;;;;;8.27;7.37;;;22.10;98.90;;;;;;5114867;28;20427;-75
2023/08/26 00:29:25;;;;;;;10.10;8.63;;;22.10;99.00;;;;;;5114587;28;20474;-75
2023/08/26 00:31:54;;;;;;;16.90;8.73;;;21.90;99.30;;;;;;5114638;28;20517;-75
2023/08/26 00:34:22;;;;;;;11.13;7.93;;;21.90;99.40;;;;;;5114687;28;20439;-76
2023/08/26 00:36:54;;;;;;;9.57;7.57;;;21.90;99.50;;;;;;5114780;28;20507;-75
2023/08/26 00:39:21;;;;;;;8.50;7.60;;;21.90;99.60;;;;;;5113648;28;20438;-75
2023/08/26 00:41:51;;;;;;;8.60;7.63;;;21.90;99.80;;;;;;5114500;28;20422;-75
2023/08/26 00:44:18;;;;;;;9.27;6.67;;;21.90;99.90;;;;;;5114543;28;20431;-75
2023/08/26 00:46:47;;;;;;;8.30;7.00;;;21.90;99.90;;;;;;5114542;28;20484;-75
2023/08/26 00:49:15;;;;;;;10.27;6.10;;;22.00;99.90;;;;;;5113928;28;20439;-75
2023/08/26 00:51:43;;;;;;;9.60;7.47;;;22.00;99.90;;;;;;5114349;28;20876;-75
2023/08/26 00:54:10;;;;;;;8.37;7.53;;;22.00;99.90;;;;;;5114042;28;20442;-75
2023/08/26 00:56:38;;;;;;;10.27;6.80;;;22.00;99.90;;;;;;5114386;28;20852;-75
2023/08/26 00:59:05;;;;;;;8.27;6.13;;;22.10;99.90;;;;;;5114325;28;20513;-75
2023/08/26 01:01:33;;;;;;;8.50;6.67;;;22.10;99.90;;;;;;5114394;28;20430;-75
2023/08/26 01:04:05;;;;;;;10.40;7.60;;;22.10;99.90;;;;;;5113814;28;20449;-75
2023/08/26 01:06:34;;;;;;;12.73;6.70;;;22.10;99.90;;;;;;5113386;28;20518;-75
2023/08/26 01:09:03;;;;;;;8.00;6.97;;;22.10;99.90;;;;;;5114144;28;20514;-78
2023/08/26 01:11:39;;;;;;;12.43;6.93;;;22.10;99.90;;;;;;5113954;28;20466;-75
2023/08/26 01:14:12;;;;;;;9.13;7.43;;;22.10;99.90;;;;;;5113225;28;20419;-75
2023/08/26 01:16:42;;;;;;;11.00;7.80;;;22.20;99.90;;;;;;5112895;28;20427;-75
2023/08/26 01:19:20;;;;;;;13.00;8.33;;;22.20;99.90;;;;;;5113614;28;20992;-75
2023/08/26 01:21:51;;;;;;;9.20;8.23;;;22.20;99.90;;;;;;5114097;28;20842;-75
2023/08/26 01:24:21;;;;;;;12.13;8.40;;;22.10;99.90;;;;;;5114336;28;20416;-75
2023/08/26 01:26:52;;;;;;;10.40;7.23;;;22.10;99.90;;;;;;5113545;28;20431;-75
2023/08/26 01:29:23;;;;;;;10.93;7.17;;;22.10;99.90;;;;;;5114290;28;20422;-75
2023/08/26 01:31:57;;;;;;;8.10;6.60;;;22.10;99.90;;;;;;5113438;28;20431;-75
2023/08/26 01:34:28;;;;;;;15.20;7.73;;;22.10;99.90;;;;;;5113560;28;20455;-76
2023/08/26 01:36:58;;;;;;;11.27;6.27;;;22.00;99.90;;;;;;5113822;28;20466;-75
2023/08/26 01:39:28;;;;;;;11.90;6.60;;;22.00;99.90;;;;;;5113545;28;20913;-74
2023/08/26 01:41:59;;;;;;;10.80;7.77;;;22.00;99.90;;;;;;5113439;28;20465;-75
2023/08/26 01:44:28;;;;;;;12.37;7.90;;;22.00;99.90;;;;;;5113290;28;20427;-75
2023/08/26 01:46:58;;;;;;;10.40;7.07;;;22.00;99.90;;;;;;5113404;28;20467;-75
2023/08/26 01:49:29;;;;;;;10.37;7.80;;;22.00;99.90;;;;;;5113274;28;20470;-75
2023/08/26 01:51:56;;;;;;;9.87;7.60;;;21.90;99.90;;;;;;5113860;28;20810;-75
2023/08/26 01:54:30;;;;;;;10.70;7.63;;;21.90;99.90;;;;;;5113642;28;20517;-75
2023/08/26 01:57:02;;;;;;;14.23;8.63;;;21.90;99.90;;;;;;5113408;28;20454;-74
2023/08/26 01:59:30;;;;;;;12.40;7.57;;;21.90;99.90;;;;;;5113864;28;20415;-75
2023/08/26 02:01:58;;;;;;;9.70;7.50;;;21.90;99.90;;;;;;5113171;28;20438;-75
2023/08/26 02:04:25;;;;;;;11.13;7.60;;;21.90;99.90;;;;;;5113602;28;20835;-74
2023/08/26 02:06:55;;;;;;;8.63;6.60;;;21.90;99.90;;;;;;5113582;28;20874;-75
2023/08/26 02:09:26;;;;;;;9.07;7.23;;;21.90;99.90;;;;;;5113210;28;20464;-75
2023/08/26 02:11:58;;;;;;;10.13;7.90;;;21.80;99.90;;;;;;5113506;28;20462;-74
2023/08/26 02:14:27;;;;;;;8.40;7.03;;;21.80;99.90;;;;;;5112143;28;20423;-75
2023/08/26 02:16:54;;;;;;;9.93;8.03;;;21.80;99.90;;;;;;5113165;28;20947;-75
2023/08/26 02:19:24;;;;;;;9.77;7.30;;;21.80;99.90;;;;;;5113197;28;20459;-75
2023/08/26 02:21:52;;;;;;;7.17;6.33;;;21.80;99.90;;;;;;5112747;28;20441;-75
2023/08/26 02:24:21;;;;;;;14.63;7.30;;;21.80;99.90;;;;;;5113069;28;20507;-75
2023/08/26 02:26:50;;;;;;;10.67;6.23;;;21.80;99.90;;;;;;5113001;28;20438;-75
2023/08/26 02:29:18;;;;;;;10.37;6.97;;;21.70;99.90;;;;;;5113323;28;20514;-75
2023/08/26 02:31:50;;;;;;;8.47;6.63;;;21.70;99.90;;;;;;5110531;28;20474;-75
2023/08/26 02:34:22;;;;;;;11.20;6.90;;;21.70;99.90;;;;;;5112411;28;20457;-75
2023/08/26 02:36:49;;;;;;;11.43;5.83;;;21.60;99.90;;;;;;5112546;28;20415;-75
2023/08/26 02:39:21;;;;;;;8.33;6.07;;;21.60;99.90;;;;;;5116864;28;20974;-75
2023/08/26 02:41:48;;;;;;;8.40;6.97;;;21.50;99.90;;;;;;5116017;28;20905;-74
2023/08/26 02:44:15;;;;;;;8.63;5.60;;;21.40;99.90;;;;;;5116695;28;20439;-75
2023/08/26 02:46:44;;;;;;;10.27;5.50;;;21.40;99.90;;;;;;5116776;28;20491;-75
2023/08/26 02:49:13;;;;;;;8.57;5.40;;;21.30;99.90;;;;;;5116479;28;20439;-75
2023/08/26 02:51:42;;;;;;;7.90;5.40;;;21.20;99.90;;;;;;5116652;28;20466;-74
2023/08/26 02:54:11;;;;;;;6.43;4.97;;;21.20;99.90;;;;;;5115960;28;20446;-75
2023/08/26 02:56:38;;;;;;;6.50;4.03;;;21.10;99.90;;;;;;5116448;28;20441;-75
2023/08/26 02:59:10;;;;;;;6.53;4.87;;;21.10;99.90;;;;;;5116566;28;20811;-75
2023/08/26 03:01:38;;;;;;;5.17;3.47;;;21.00;99.90;;;;;;5116510;28;20465;-75
2023/08/26 03:04:09;;;;;;;6.60;3.50;;;20.90;99.90;;;;;;5116400;28;20480;-75
2023/08/26 03:06:43;;;;;;;4.90;3.50;;;20.90;99.90;;;;;;5115885;28;20952;-75
2023/08/26 03:09:13;;;;;;;5.97;3.40;;;20.90;99.90;;;;;;5116442;28;20423;-75
2023/08/26 03:11:40;;;;;;;4.80;3.00;;;20.70;99.90;;;;;;5116256;28;20474;-75
2023/08/26 03:14:09;;;;;;;4.80;3.20;;;20.70;99.90;;;;;;5116557;28;20479;-75
2023/08/26 03:16:41;;;;;;;7.20;2.57;;;20.60;98.70;;;;;;5116151;28;20435;-77
2023/08/26 03:19:10;;;;;;;16.07;3.70;;;20.50;98.90;;;;;;5115838;28;20515;-76
2023/08/26 03:21:37;;;;;;;5.53;2.53;;;20.40;99.00;;;;;;5116094;28;20438;-77
2023/08/26 03:24:12;;;;;;;7.13;3.13;;;20.30;99.80;;;;;;5116153;28;20442;-75
2023/08/26 03:26:40;;;;;;;6.40;2.80;;;20.20;99.90;;;;;;5115742;28;20483;-75
2023/08/26 03:29:11;;;;;;;5.23;2.33;;;20.10;99.90;;;;;;5115743;28;20788;-75
2023/08/26 03:31:39;;;;;;;4.30;2.60;;;20.10;99.90;;;;;;5115965;28;20805;-75
2023/08/26 03:34:12;;;;;;;6.20;2.40;;;20.10;99.90;;;;;;5115937;28;20439;-74
2023/08/26 03:36:44;;;;;;;4.80;2.87;;;20.10;99.90;;;;;;5115192;28;20543;-74
2023/08/26 03:39:12;;;;;;;4.03;2.60;;;19.90;99.90;;;;;;5115440;28;20467;-75
2023/08/26 03:41:39;;;;;;;3.80;2.17;;;19.80;99.90;;;;;;5115906;28;20442;-77
2023/08/26 03:44:09;;;;;;;3.93;2.03;;;19.90;99.90;;;;;;5115877;28;20485;-75
2023/08/26 03:46:41;;;;;;;5.40;2.73;;;19.90;99.90;;;;;;5115204;28;20460;-75
2023/08/26 03:49:14;;;;;;;4.37;2.00;;;19.80;99.90;;;;;;5114507;28;20431;-75
2023/08/26 03:51:41;;;;;;;7.00;3.53;;;19.80;99.90;;;;;;5115489;28;20466;-76
2023/08/26 03:54:10;;;;;;;5.90;2.60;;;19.80;99.90;;;;;;5115128;28;20439;-75
2023/08/26 03:56:42;;;;;;;3.53;2.20;;;19.80;99.90;;;;;;5114968;28;20503;-76
2023/08/26 03:59:14;;;;;;;6.80;2.80;;;19.80;99.90;;;;;;5115155;28;20415;-76
2023/08/26 04:01:43;;;;;;;5.10;2.93;;;19.90;99.90;;;;;;5115377;28;20427;-76
2023/08/26 04:04:15;;;;;;;5.17;2.33;;;19.90;99.90;;;;;;5115213;28;20430;-75
2023/08/26 04:06:42;;;;;;;4.20;2.20;;;19.90;99.90;;;;;;5114587;28;20787;-75
2023/08/26 04:09:11;;;;;;;4.83;2.30;;;19.80;99.90;;;;;;5114192;28;20449;-75
2023/08/26 04:11:40;;;;;;;3.57;1.73;;;19.70;99.90;;;;;;5115022;28;20470;-75
2023/08/26 04:14:21;;;;;;;3.40;1.90;;;19.70;99.90;;;;;;5115097;28;20530;-75
2023/08/26 04:16:53;;;;;;;6.80;2.30;;;19.70;99.90;;;;;;5114036;28;20901;-75
2023/08/26 04:19:22;;;;;;;2.80;1.70;;;19.70;99.90;;;;;;5114475;28;20467;-75
2023/08/26 04:21:51;;;;;;;2.77;1.70;;;19.60;99.90;;;;;;5114615;28;20465;-75
2023/08/26 04:24:23;;;;;;;6.50;2.47;;;19.70;99.90;;;;;;5114826;28;20483;-75
2023/08/26 04:26:50;;;;;;;5.80;2.20;;;19.70;99.90;;;;;;5114560;28;20889;-75
2023/08/26 04:29:22;;;;;;;4.73;2.43;;;19.70;99.90;;;;;;5114413;28;20978;-75
2023/08/26 04:31:57;;;;;;;3.87;2.33;;;19.70;99.90;;;;;;5113593;28;21017;-75
2023/08/26 04:34:27;;;;;;;5.40;2.20;;;19.70;99.90;;;;;;5114370;28;20451;-76
2023/08/26 04:36:55;;;;;;;3.53;2.03;;;19.70;99.90;;;;;;5114732;28;20430;-74
2023/08/26 04:39:28;;;;;;;3.80;1.70;;;19.70;99.90;;;;;;5114615;28;20442;-74
2023/08/26 04:41:55;;;;;;;4.13;2.43;;;19.70;99.90;;;;;;5114645;28;20419;-75
2023/08/26 04:44:29;;;;;;;3.13;1.90;;;19.70;99.90;;;;;;5114048;28;20492;-75
2023/08/26 04:46:56;;;;;;;8.50;2.93;;;19.70;99.90;;;;;;5101147;28;20973;-75
2023/08/26 04:49:31;;;;;;;5.70;2.30;;;19.80;99.90;;;;;;5113788;28;20845;-75
2023/08/26 04:52:02;;;;;;;5.23;3.10;;;19.80;99.90;;;;;;5113976;28;20810;-75
2023/08/26 04:54:30;;;;;;;4.07;2.90;;;19.80;99.90;;;;;;5114187;28;20818;-75
2023/08/26 04:56:59;;;;;;;7.60;2.23;;;19.80;99.90;;;;;;5113578;28;20940;-74
2023/08/26 04:59:28;;;;;;;3.60;2.13;;;19.80;99.90;;;;;;5113620;28;20427;-75
2023/08/26 05:01:55;;;;;;;4.87;1.60;;;19.80;99.90;;;;;;5111745;28;20442;-76
2023/08/26 05:07:33;;;;;;;7.10;2.63;;;19.80;99.90;;;;;;5130655;27;20563;-78
2023/08/26 05:10:04;;;;;;;8.90;2.60;;;19.80;99.90;;;;;;5094628;28;20488;-75
2023/08/26 05:12:33;;;;;;;4.27;2.83;;;19.90;99.90;;;;;;5110883;28;20467;-75
2023/08/26 05:15:00;;;;;;;6.70;2.47;;;19.90;99.90;;;;;;5110682;28;20519;-75
2023/08/26 05:17:31;;;;;;;5.33;2.40;;;19.90;99.90;;;;;;5125043;28;20956;-75
2023/08/26 05:19:58;;;;;;;4.87;2.70;;;19.90;99.90;;;;;;5130896;28;20486;-75
2023/08/26 05:22:32;;;;;;;3.27;2.10;;;19.90;99.90;;;;;;5131254;28;20732;-75
2023/08/26 05:25:01;;;;;;;5.50;2.80;;;19.90;99.90;;;;;;5130791;28;20494;-75
2023/08/26 05:27:28;;;;;;;5.57;2.53;;;20.00;99.90;;;;;;5131263;27;20486;-74
2023/08/26 05:30:00;;;;;;;3.17;2.23;;;19.90;99.90;;;;;;5130300;28;20429;-75
2023/08/26 05:32:28;;;;;;;5.23;2.70;;;20.00;99.90;;;;;;5110206;28;20904;-77
2023/08/26 05:34:55;;;;;;;5.83;2.63;;;20.00;99.90;;;;;;5124569;28;20447;-75
2023/08/26 05:37:33;;;;;;;4.10;2.47;;;20.10;99.90;;;;;;5130942;28;20830;-75
2023/08/26 05:40:03;;;;;;;6.60;2.97;;;20.10;99.90;;;;;;5130603;28;20426;-75
2023/08/26 05:42:36;;;;;;;3.87;2.43;;;20.20;99.90;;;;;;5130639;28;20892;-75
2023/08/26 05:45:06;;;;;;;5.40;2.80;;;20.20;99.90;;;;;;5130344;28;20430;-75
2023/08/26 05:47:33;;;;;;;7.73;2.33;;;20.30;99.90;;;;;;5127504;27;20695;-75
2023/08/26 05:50:05;;;;;;;8.67;3.80;;;20.30;99.90;;;;;;5110228;28;20435;-75
2023/08/26 05:52:37;;;;;;;6.27;2.80;;;20.30;99.90;;;;;;5110348;28;20484;-75
2023/08/26 05:55:07;;;;;;;4.60;2.50;;;20.40;99.90;;;;;;5109775;28;20427;-74
2023/08/26 05:57:41;;;;;;;5.37;3.60;;;20.40;99.90;;;;;;5109787;28;20921;-75
2023/08/26 06:00:15;;;;;;;5.53;3.60;;;20.40;99.90;;;;;;5110210;28;20411;-75
2023/08/26 06:02:45;;;;;;;4.50;3.00;;;20.50;99.90;;;;;;5110954;28;20469;-74
2023/08/26 06:05:14;;;;;;;6.63;3.83;;;20.60;99.90;;;;;;5109403;28;20430;-77
2023/08/26 06:07:43;;;;;;;6.87;3.80;;;20.60;99.90;;;;;;5109644;28;20418;-75
2023/08/26 06:10:13;;;;;;;6.23;3.53;;;20.80;99.90;;;;;;5109846;28;20481;-75
2023/08/26 06:12:42;;;;;;;7.93;3.30;;;20.80;99.90;;;;;;5109601;28;20442;-75
2023/08/26 06:15:14;;;;;;;6.87;3.50;;;20.90;99.90;;;;;;5109449;28;20431;-76
2023/08/26 06:17:45;;;;;;;5.97;3.37;;;20.90;99.90;;;;;;5101889;28;20416;-75
2023/08/26 06:20:15;;;;;;;11.80;4.10;;;20.90;99.90;;;;;;5112002;28;20422;-82
2023/08/26 06:22:45;;;;;;;4.07;2.80;;;21.00;99.90;;;;;;5075702;28;20436;-75
2023/08/26 06:25:14;;;;;;;6.47;3.23;;;21.10;99.90;;;;;;5085637;28;20447;-75
2023/08/26 06:27:42;;;;;;;4.57;2.93;;;21.20;99.90;;;;;;5095475;28;20463;-75
2023/08/26 06:30:13;;;;;;;4.33;2.80;;;21.40;99.90;;;;;;5095897;28;20424;-75
2023/08/26 06:32:44;;;;;;;4.47;2.97;;;21.50;99.90;;;;;;5095405;28;20435;-75
2023/08/26 06:35:14;;;;;;;5.13;3.23;;;21.60;99.90;;;;;;5095838;28;20424;-75
2023/08/26 06:37:45;;;;;;;6.03;3.40;;;21.80;99.90;;;;;;5104944;28;20496;-75
2023/08/26 06:40:14;;;;;;;4.23;2.83;;;21.90;99.90;;;;;;5115340;28;20960;-74
2023/08/26 06:42:46;;;;;;;5.57;3.83;;;22.10;99.90;;;;;;5115156;28;20477;-75
2023/08/26 06:45:17;;;;;;;8.07;3.43;;;22.10;99.90;;;;;;5103469;28;20427;-75
2023/08/26 06:47:46;;;;;;;6.80;3.60;;;22.10;99.90;;;;;;5093336;28;20547;-75
2023/08/26 06:50:15;;;;;;;5.13;2.90;;;22.00;99.50;;;;;;5092958;28;20485;-76
2023/08/26 06:52:53;;;;;;;4.07;3.10;;;21.90;99.00;;;;;;5092959;28;20520;-75
2023/08/26 06:55:25;;;;;;;7.17;3.50;;;21.90;99.90;;;;;;5093206;28;20444;-76
2023/08/26 06:57:57;;;;;;;7.43;3.53;;;22.10;99.90;;;;;;5093674;28;20428;-75
2023/08/26 07:00:24;;;;;;;7.20;3.07;;;22.30;99.90;;;;;;5092703;28;20451;-75
2023/08/26 07:02:51;;;;;;;3.90;2.67;;;22.60;99.90;;;;;;5092787;28;21013;-76
2023/08/26 07:05:24;;;;;;;5.63;3.20;;;22.90;99.70;;;;;;5088853;28;20471;-82
2023/08/26 07:11:17;;;;;;;4.50;2.83;;;23.30;97.50;;;;;;5091254;28;20454;-76
2023/08/26 07:13:44;;;;;;;5.10;3.10;;;23.50;96.00;;;;;;5093014;28;20435;-76
2023/08/26 07:16:11;;;;;;;6.27;3.50;;;23.70;95.80;;;;;;5072683;28;20444;-76
2023/08/26 07:18:38;;;;;;;5.70;3.20;;;23.90;94.80;;;;;;5072790;28;20432;-76
2023/08/26 07:21:06;;;;;;;4.73;2.60;;;24.00;92.90;;;;;;5072686;28;20436;-75
2023/08/26 07:23:38;;;;;;;3.80;2.50;;;24.10;92.30;;;;;;5072398;28;20432;-77
2023/08/26 07:26:05;;;;;;;5.03;3.20;;;24.20;92.50;;;;;;5072997;28;20567;-75
2023/08/26 07:28:33;;;;;;;4.97;2.60;;;24.30;93.60;;;;;;5071937;28;20912;-75
2023/08/26 07:31:03;;;;;;;7.50;2.93;;;24.60;94.00;;;;;;5072306;28;20511;-75
2023/08/26 07:33:31;;;;;;;4.93;2.93;;;24.90;94.20;;;;;;5072543;28;20445;-75
2023/08/26 07:36:05;;;;;;;6.17;2.50;;;25.10;92.20;;;;;;5071872;28;20918;-76
2023/08/26 07:38:32;;;;;;;4.70;2.90;;;25.30;91.10;;;;;;5073516;28;20433;-75
2023/08/26 07:40:59;;;;;;;4.80;2.37;;;25.60;92.20;;;;;;5071808;28;20456;-75
2023/08/26 07:43:26;;;;;;;6.43;3.07;;;25.90;91.00;;;;;;5072274;28;20907;-77
2023/08/26 07:45:55;;;;;;;5.70;3.03;;;26.20;84.60;;;;;;5072535;28;20490;-76
2023/08/26 07:48:22;;;;;;;6.50;2.97;;;27.00;80.40;;;;;;5072040;28;20433;-76
2023/08/26 07:50:48;;;;;;;3.60;2.23;;;27.80;78.60;;;;;;5071017;28;20903;-76
2023/08/26 07:53:24;;;;;;;4.40;2.97;;;28.90;74.30;;;;;;5071955;28;20437;-76
2023/08/26 07:56:01;;;;;;;3.57;2.43;;;29.60;68.40;;;;;;5071738;28;20424;-78
2023/08/26 07:58:28;;;;;;;4.13;2.67;;;30.60;65.40;;;;;;5071967;28;21734;-76
2023/08/26 08:00:57;;;;;;;4.67;2.63;;;31.70;66.50;;;;;;5071448;28;20432;-76
2023/08/26 08:03:24;;;;;;;4.73;3.00;;;32.80;58.50;;;;;;5071200;28;20433;-76
2023/08/26 08:05:51;;;;;;;3.90;3.13;;;34.10;58.60;;;;;;5071660;28;20468;-75
2023/08/26 08:08:25;;;;;;;4.40;2.70;;;34.90;52.90;;;;;;5067193;28;20502;-76
2023/08/26 08:11:00;;;;;;;4.97;2.93;;;35.30;51.60;;;;;;5070903;28;20954;-76
2023/08/26 08:13:27;;;;;;;4.13;2.90;;;35.70;49.20;;;;;;5070661;28;20529;-76
2023/08/26 08:15:54;;;;;;;6.33;3.07;;;35.90;49.10;;;;;;5073358;28;20468;-77
2023/08/26 08:18:22;;;;;;;7.33;3.90;;;36.70;46.50;;;;;;5072077;28;20443;-76
2023/08/26 08:20:49;;;;;;;5.00;2.93;;;37.80;44.10;;;;;;5075264;28;20446;-76
2023/08/26 08:23:16;;;;;;;5.70;3.50;;;37.90;42.20;;;;;;5071558;28;20439;-76
2023/08/26 08:25:48;;;;;;;5.80;3.57;;;38.10;42.30;;;;;;5071773;28;20433;-75
2023/08/26 08:28:15;;;;;;;7.33;3.17;;;38.60;40.50;;;;;;5067555;28;20477;-76
2023/08/26 08:30:42;;;;;;;4.43;3.40;;;39.20;39.70;;;;;;5071514;28;20496;-76
2023/08/26 08:33:09;;;;;;;6.53;3.53;;;39.50;39.10;;;;;;5071701;28;20840;-75
2023/08/26 08:35:38;;;;;;;5.73;3.30;;;39.80;37.50;;;;;;5071258;28;20476;-76
2023/08/26 08:38:05;;;;;;;5.83;3.53;;;40.20;35.80;;;;;;5071677;28;20486;-76
2023/08/26 08:40:32;;;;;;;6.77;3.47;;;40.70;34.40;;;;;;5071394;28;20797;-76
2023/08/26 08:43:02;;;;;;;4.60;2.73;;;41.00;34.50;;;;;;5072718;28;20451;-75
2023/08/26 08:45:29;;;;;;;6.33;2.50;;;41.30;32.50;;;;;;5066591;28;20440;-75
2023/08/26 08:47:57;;;;;;;5.60;2.77;;;41.40;29.80;;;;;;5073444;28;20864;-75
2023/08/26 08:50:24;;;;;;;5.17;2.90;;;41.40;32.80;;;;;;5071088;28;20489;-76
2023/08/26 08:52:56;;;;;;;6.70;2.40;;;41.90;33.60;;;;;;5070985;28;20417;-76
2023/08/26 08:55:23;;;;;;;9.20;4.10;;;42.40;30.90;;;;;;5074568;28;20456;-75
2023/08/26 08:57:54;;;;;;;10.00;3.00;;;42.70;29.80;;;;;;5071220;28;20464;-75
2023/08/26 09:00:25;;;;;;;4.57;2.90;;;43.10;30.50;;;;;;5070731;28;20436;-76
2023/08/26 09:02:54;;;;;;;4.00;2.67;;;43.50;29.60;;;;;;5071125;28;20516;-75
2023/08/26 09:05:21;;;;;;;3.93;2.87;;;42.60;28.40;;;;;;5071318;28;20514;-75
2023/08/26 09:07:51;;;;;;;4.43;2.43;;;41.10;28.80;;;;;;5074430;28;20499;-76
2023/08/26 09:10:21;;;;;;;3.60;2.33;;;39.20;30.40;;;;;;5070817;28;20433;-75
2023/08/26 09:12:48;;;;;;;3.70;2.67;;;37.50;33.40;;;;;;5070352;28;20926;-75
2023/08/26 09:15:16;;;;;;;4.77;3.10;;;36.20;36.00;;;;;;5067390;28;20442;-75
2023/08/26 09:17:45;;;;;;;3.97;3.00;;;35.40;38.50;;;;;;5071047;28;20484;-75
2023/08/26 09:20:12;;;;;;;3.67;2.60;;;35.00;40.10;;;;;;5071236;28;20441;-75
2023/08/26 09:22:40;;;;;;;4.03;2.60;;;35.00;40.70;;;;;;5070301;28;20509;-75
2023/08/26 09:25:11;;;;;;;4.07;3.10;;;35.10;40.80;;;;;;5070777;28;20441;-75
2023/08/26 09:27:43;;;;;;;5.00;2.53;;;34.80;39.80;;;;;;5067426;28;20473;-75
2023/08/26 09:30:11;;;;;;;5.20;2.40;;;34.30;42.50;;;;;;5071377;28;20433;-76
2023/08/26 09:32:40;;;;;;;6.10;2.80;;;34.20;41.60;;;;;;5072697;28;20950;-75
2023/08/26 09:35:12;;;;;;;5.13;2.80;;;34.40;40.70;;;;;;5066899;28;20436;-75
2023/08/26 09:37:48;;;;;;;5.43;3.10;;;34.30;41.90;;;;;;5070825;28;20495;-75
2023/08/26 09:40:16;;;;;;;5.43;3.10;;;34.20;42.90;;;;;;5071770;28;20722;-75
2023/08/26 09:42:45;;;;;;;5.43;3.40;;;34.20;43.50;;;;;;5077072;28;20447;-75
2023/08/26 09:45:14;;;;;;;3.83;2.50;;;34.20;44.40;;;;;;5072565;28;20449;-75
2023/08/26 09:47:49;;;;;;;5.00;2.73;;;34.10;44.70;;;;;;5070666;28;20907;-75
2023/08/26 09:50:16;;;;;;;4.90;2.73;;;33.70;44.70;;;;;;5071238;28;20823;-75
2023/08/26 09:52:45;;;;;;;5.23;3.27;;;33.30;45.30;;;;;;5071901;28;20775;-76
2023/08/26 09:55:12;;;;;;;6.47;2.73;;;32.90;46.40;;;;;;5070235;28;20458;-75
2023/08/26 09:57:40;;;;;;;5.37;3.57;;;32.60;46.60;;;;;;5074242;28;20478;-75
2023/08/26 10:00:11;;;;;;;8.37;3.43;;;32.30;46.30;;;;;;5050704;28;20523;-77
2023/08/26 10:02:42;;;;;;;4.10;2.87;;;32.10;47.10;;;;;;5069310;28;20443;-80
2023/08/26 10:05:24;;;;;;;4.70;2.83;;;32.30;47.70;;;;;;5070824;28;20850;-81
2023/08/26 10:07:52;;;;;;;6.60;3.60;;;32.90;48.70;;;;;;5071067;28;20974;-76
2023/08/26 10:10:35;;;;;;;5.87;2.90;;;34.10;46.60;;;;;;5071572;28;20927;-75
2023/08/26 10:13:05;;;;;;;4.00;2.97;;;35.10;44.40;;;;;;5069513;28;20430;-75
2023/08/26 10:15:35;;;;;;;3.70;2.87;;;35.50;42.30;;;;;;5073439;28;20481;-76
2023/08/26 10:18:08;;;;;;;4.27;2.43;;;35.60;41.90;;;;;;5076948;28;20441;-76
2023/08/26 10:20:36;;;;;;;4.20;2.80;;;35.90;41.90;;;;;;5069916;28;20896;-76
2023/08/26 10:23:03;;;;;;;5.20;3.43;;;36.00;40.80;;;;;;5073501;28;20927;-75
2023/08/26 10:25:32;;;;;;;4.80;3.27;;;36.10;40.80;;;;;;5073575;28;20526;-76
2023/08/26 10:28:03;;;;;;;7.13;2.87;;;36.20;41.20;;;;;;5073187;28;20479;-75
2023/08/26 10:30:33;;;;;;;5.43;2.97;;;36.10;39.50;;;;;;5074073;28;20449;-76
2023/08/26 10:33:00;;;;;;;6.33;3.00;;;35.70;39.20;;;;;;5073674;28;20440;-77
2023/08/26 10:35:31;;;;;;;6.40;3.50;;;35.50;41.40;;;;;;5072870;28;21015;-75
2023/08/26 10:38:13;;;;;;;4.80;3.20;;;35.40;42.00;;;;;;5073921;28;20438;-75
2023/08/26 10:40:40;;;;;;;4.00;2.60;;;35.20;42.00;;;;;;5073795;28;20537;-75
2023/08/26 10:43:08;;;;;;;4.17;2.50;;;35.10;41.00;;;;;;5073366;28;21231;-75
2023/08/26 10:45:46;;;;;;;3.90;2.50;;;35.00;40.30;;;;;;5073141;28;20456;-75
2023/08/26 10:48:15;;;;;;;4.50;2.30;;;34.90;43.80;;;;;;5074799;28;20475;-76
2023/08/26 10:50:46;;;;;;;3.90;2.73;;;34.80;43.60;;;;;;5078674;28;20445;-75
2023/08/26 10:53:19;;;;;;;4.23;2.63;;;34.80;43.30;;;;;;5093620;28;20441;-76
2023/08/26 10:55:47;;;;;;;4.03;2.90;;;34.70;42.50;;;;;;5095389;28;20502;-76
2023/08/26 10:58:17;;;;;;;7.57;2.67;;;34.60;41.40;;;;;;5092585;28;20992;-76
2023/08/26 11:00:46;;;;;;;5.73;3.03;;;34.50;42.00;;;;;;5074745;28;20495;-75
2023/08/26 11:03:15;;;;;;;4.40;2.90;;;34.40;42.30;;;;;;5074668;28;20855;-76
2023/08/26 11:05:44;;;;;;;4.50;2.70;;;34.40;43.50;;;;;;5074592;28;20576;-76
2023/08/26 11:08:12;;;;;;;5.17;2.70;;;34.50;43.40;;;;;;5074651;28;20508;-76
2023/08/26 11:10:40;;;;;;;3.60;2.83;;;34.40;44.30;;;;;;5074635;28;20487;-76
2023/08/26 11:13:09;;;;;;;5.30;2.73;;;34.30;44.20;;;;;;5074607;28;20886;-76
2023/08/26 11:15:38;;;;;;;3.97;2.80;;;34.20;43.50;;;;;;5074555;28;20432;-75
2023/08/26 11:18:07;;;;;;;4.97;3.10;;;34.10;43.90;;;;;;5074734;28;20474;-76
2023/08/26 11:20:35;;;;;;;5.63;3.40;;;34.00;43.80;;;;;;5074460;28;20996;-75
2023/08/26 11:23:03;;;;;;;8.07;2.87;;;33.90;43.80;;;;;;5074508;28;20425;-75
2023/08/26 11:25:30;;;;;;;5.27;3.90;;;33.70;44.50;;;;;;5074282;28;20471;-76
2023/08/26 11:28:04;;;;;;;4.03;2.80;;;33.70;43.30;;;;;;5074558;28;20883;-76
2023/08/26 11:30:31;;;;;;;5.60;3.00;;;33.60;43.20;;;;;;5074303;28;20417;-76
2023/08/26 11:33:06;;;;;;;6.20;3.27;;;33.70;44.60;;;;;;5074486;28;20832;-76
2023/08/26 11:35:37;;;;;;;5.37;3.27;;;33.70;45.10;;;;;;5074153;28;20523;-75
2023/08/26 11:38:07;;;;;;;5.33;3.90;;;33.90;45.00;;;;;;5074421;28;20794;-75
2023/08/26 11:40:34;;;;;;;5.63;3.43;;;34.00;44.90;;;;;;5074400;28;20436;-75
2023/08/26 11:43:06;;;;;;;4.03;3.10;;;34.10;45.10;;;;;;5074231;28;20498;-76
2023/08/26 11:45:34;;;;;;;5.23;3.40;;;34.10;44.50;;;;;;5073939;28;20465;-75
2023/08/26 11:48:01;;;;;;;6.43;3.60;;;34.20;45.50;;;;;;5073930;28;20584;-76
2023/08/26 11:50:29;;;;;;;6.13;3.90;;;34.20;44.90;;;;;;5074261;28;20442;-76
2023/08/26 11:53:01;;;;;;;4.20;3.30;;;34.40;44.90;;;;;;5074094;28;20472;-76
2023/08/26 11:55:28;;;;;;;4.30;3.50;;;34.40;44.10;;;;;;5074272;28;20471;-75
2023/08/26 11:57:56;;;;;;;4.80;3.50;;;34.40;44.10;;;;;;5074132;28;20770;-75
2023/08/26 12:00:23;;;;;;;5.50;3.00;;;34.40;44.20;;;;;;5073760;28;20434;-77
2023/08/26 12:02:52;;;;;;;5.30;3.40;;;34.40;44.20;;;;;;5073908;28;20432;-76
2023/08/26 12:05:19;;;;;;;5.37;3.20;;;34.50;43.60;;;;;;5073384;28;20494;-75
2023/08/26 12:07:48;;;;;;;4.20;3.03;;;34.60;43.50;;;;;;5073593;28;20460;-76
2023/08/26 12:10:18;;;;;;;9.00;3.10;;;34.80;43.40;;;;;;5073912;28;20437;-76
2023/08/26 12:12:48;;;;;;;5.73;3.73;;;34.90;43.20;;;;;;5073867;28;20425;-76
2023/08/26 12:15:17;;;;;;;9.10;3.40;;;34.90;42.00;;;;;;5072817;28;20480;-76
2023/08/26 12:17:46;;;;;;;5.70;3.40;;;35.00;42.70;;;;;;5073689;28;20795;-76
2023/08/26 12:20:24;;;;;;;4.70;3.20;;;34.90;42.50;;;;;;5073673;28;20446;-75
2023/08/26 12:22:52;;;;;;;4.80;3.27;;;34.90;43.80;;;;;;5073658;28;20429;-75
2023/08/26 12:25:25;;;;;;;5.00;3.00;;;34.70;43.00;;;;;;5073225;28;20490;-75
2023/08/26 12:27:53;;;;;;;5.03;3.80;;;34.60;43.70;;;;;;5073731;28;20468;-76
2023/08/26 12:30:20;;;;;;;4.50;3.53;;;34.50;43.70;;;;;;5073518;28;20460;-75
2023/08/26 12:32:49;;;;;;;3.87;3.10;;;34.40;43.60;;;;;;5073293;28;20835;-76
2023/08/26 12:35:16;;;;;;;4.80;3.37;;;34.30;44.70;;;;;;5073354;28;20441;-75
2023/08/26 12:37:43;;;;;;;6.97;2.87;;;34.30;44.20;;;;;;5073065;28;20436;-75
2023/08/26 12:40:12;;;;;;;6.43;3.57;;;34.20;43.50;;;;;;5073328;28;20493;-76
2023/08/26 12:42:41;;;;;;;6.27;4.00;;;34.00;43.60;;;;;;5073273;28;20429;-75
2023/08/26 12:45:08;;;;;;;6.20;3.50;;;34.00;44.20;;;;;;5072989;28;20444;-75
2023/08/26 12:47:37;;;;;;;8.87;3.77;;;34.00;45.00;;;;;;5073072;28;20479;-76
2023/08/26 12:50:07;;;;;;;5.53;3.10;;;33.90;44.70;;;;;;5073391;28;20449;-76
2023/08/26 12:52:34;;;;;;;5.13;3.73;;;33.80;45.00;;;;;;5072941;28;20864;-76
2023/08/26 12:55:01;;;;;;;5.20;4.03;;;33.60;45.30;;;;;;5072944;28;20911;-76
2023/08/26 12:57:33;;;;;;;4.93;3.70;;;33.40;44.50;;;;;;5073235;28;20515;-75
2023/08/26 13:00:04;;;;;;;5.20;3.10;;;33.20;45.50;;;;;;5073119;28;20421;-76
2023/08/26 13:02:32;;;;;;;5.40;3.80;;;33.20;45.90;;;;;;5073231;28;20844;-76
2023/08/26 13:05:02;;;;;;;5.73;3.90;;;33.20;46.60;;;;;;5072586;28;20429;-76